sensor_id;sensor_type;location;lat;lon;timestamp;P1;durP1;ratioP1;P2;durP2;ratioP2
58896;SDS011;44677;52.378;10.400;2023-05-29T00:01:23;6.10;;;3.50;;
58896;SDS011;44677;52.378;10.400;2023-05-29T00:03:49;6.80;;;3.60;;
58896;SDS011;44677;52.378;10.400;2023-05-29T00:06:15;6.00;;;3.60;;
58896;SDS011;44677;52.378;10.400;2023-05-29T00:08:41;6.50;;;3.80;;
58896;SDS011;44677;52.378;10.400;2023-05-29T00:11:06;7.30;;;4.00;;
58896;SDS011;44677;52.378;10.400;2023-05-29T00:13:32;6.90;;;3.60;;
58896;SDS011;44677;52.378;10.400;2023-05-29T00:15:57;6.90;;;3.70;;
58896;SDS011;44677;52.378;10.400;2023-05-29T00:18:24;7.00;;;3.90;;
58896;SDS011;44677;52.378;10.400;2023-05-29T00:20:50;6.20;;;3.30;;
58896;SDS011;44677;52.378;10.400;2023-05-29T00:23:18;6.40;;;3.80;;
58896;SDS011;44677;52.378;10.400;2023-05-29T00:25:43;6.70;;;4.40;;
58896;SDS011;44677;52.378;10.400;2023-05-29T00:28:09;6.40;;;3.90;;
58896;SDS011;44677;52.378;10.400;2023-05-29T00:30:34;3.90;;;3.50;;
58896;SDS011;44677;52.378;10.400;2023-05-29T00:33:00;6.10;;;3.60;;
58896;SDS011;44677;52.378;10.400;2023-05-29T00:35:26;6.30;;;3.50;;
58896;SDS011;44677;52.378;10.400;2023-05-29T00:37:51;6.90;;;3.80;;
58896;SDS011;44677;52.378;10.400;2023-05-29T00:40:16;5.90;;;3.40;;
58896;SDS011;44677;52.378;10.400;2023-05-29T00:42:42;4.30;;;3.70;;
58896;SDS011;44677;52.378;10.400;2023-05-29T00:45:07;5.00;;;4.00;;
58896;SDS011;44677;52.378;10.400;2023-05-29T00:47:33;4.90;;;4.10;;
58896;SDS011;44677;52.378;10.400;2023-05-29T00:49:58;6.70;;;3.70;;
58896;SDS011;44677;52.378;10.400;2023-05-29T00:52:24;4.00;;;3.50;;
58896;SDS011;44677;52.378;10.400;2023-05-29T00:54:50;4.80;;;3.20;;
58896;SDS011;44677;52.378;10.400;2023-05-29T00:57:16;6.80;;;3.80;;
58896;SDS011;44677;52.378;10.400;2023-05-29T00:59:42;5.70;;;3.60;;
58896;SDS011;44677;52.378;10.400;2023-05-29T01:02:09;5.90;;;3.50;;
58896;SDS011;44677;52.378;10.400;2023-05-29T01:04:34;5.60;;;3.20;;
58896;SDS011;44677;52.378;10.400;2023-05-29T01:07:01;6.50;;;3.60;;
58896;SDS011;44677;52.378;10.400;2023-05-29T01:09:30;6.20;;;3.60;;
58896;SDS011;44677;52.378;10.400;2023-05-29T01:22:58;7.40;;;3.30;;
58896;SDS011;44677;52.378;10.400;2023-05-29T01:28:45;4.50;;;3.30;;
58896;SDS011;44677;52.378;10.400;2023-05-29T01:31:14;4.80;;;3.60;;
58896;SDS011;44677;52.378;10.400;2023-05-29T01:33:46;7.70;;;3.80;;
58896;SDS011;44677;52.378;10.400;2023-05-29T01:36:17;5.40;;;3.80;;
58896;SDS011;44677;52.378;10.400;2023-05-29T01:38:42;4.90;;;3.90;;
58896;SDS011;44677;52.378;10.400;2023-05-29T01:41:10;10.10;;;4.20;;
58896;SDS011;44677;52.378;10.400;2023-05-29T01:43:35;8.10;;;3.90;;
58896;SDS011;44677;52.378;10.400;2023-05-29T01:46:01;5.70;;;3.90;;
58896;SDS011;44677;52.378;10.400;2023-05-29T01:48:27;6.00;;;3.70;;
58896;SDS011;44677;52.378;10.400;2023-05-29T01:50:55;4.70;;;3.80;;
58896;SDS011;44677;52.378;10.400;2023-05-29T01:53:23;4.30;;;3.50;;
58896;SDS011;44677;52.378;10.400;2023-05-29T01:55:49;4.90;;;3.80;;
58896;SDS011;44677;52.378;10.400;2023-05-29T01:58:15;6.50;;;3.90;;
58896;SDS011;44677;52.378;10.400;2023-05-29T02:00:41;5.30;;;3.50;;
58896;SDS011;44677;52.378;10.400;2023-05-29T02:03:07;5.70;;;3.80;;
58896;SDS011;44677;52.378;10.400;2023-05-29T02:05:32;5.30;;;3.80;;
58896;SDS011;44677;52.378;10.400;2023-05-29T02:07:58;3.80;;;3.10;;
58896;SDS011;44677;52.378;10.400;2023-05-29T02:10:23;3.80;;;3.30;;
58896;SDS011;44677;52.378;10.400;2023-05-29T02:12:48;6.60;;;3.30;;
58896;SDS011;44677;52.378;10.400;2023-05-29T02:15:14;5.40;;;3.40;;
58896;SDS011;44677;52.378;10.400;2023-05-29T02:17:40;5.30;;;3.50;;
58896;SDS011;44677;52.378;10.400;2023-05-29T02:20:06;5.10;;;3.40;;
58896;SDS011;44677;52.378;10.400;2023-05-29T02:22:32;5.00;;;3.90;;
58896;SDS011;44677;52.378;10.400;2023-05-29T02:24:58;6.10;;;3.90;;
58896;SDS011;44677;52.378;10.400;2023-05-29T02:27:23;4.00;;;3.50;;
58896;SDS011;44677;52.378;10.400;2023-05-29T02:29:48;4.30;;;3.60;;
58896;SDS011;44677;52.378;10.400;2023-05-29T02:32:14;4.80;;;3.20;;
58896;SDS011;44677;52.378;10.400;2023-05-29T02:34:39;5.20;;;3.50;;
58896;SDS011;44677;52.378;10.400;2023-05-29T02:37:05;5.00;;;3.20;;
58896;SDS011;44677;52.378;10.400;2023-05-29T02:39:30;4.00;;;3.40;;
58896;SDS011;44677;52.378;10.400;2023-05-29T02:41:56;3.90;;;3.40;;
58896;SDS011;44677;52.378;10.400;2023-05-29T02:44:21;5.20;;;3.40;;
58896;SDS011;44677;52.378;10.400;2023-05-29T02:46:46;3.60;;;3.20;;
58896;SDS011;44677;52.378;10.400;2023-05-29T02:49:12;5.50;;;3.50;;
58896;SDS011;44677;52.378;10.400;2023-05-29T02:51:37;5.20;;;3.30;;
58896;SDS011;44677;52.378;10.400;2023-05-29T02:54:02;6.00;;;3.60;;
58896;SDS011;44677;52.378;10.400;2023-05-29T02:56:28;4.00;;;3.30;;
58896;SDS011;44677;52.378;10.400;2023-05-29T02:58:54;4.00;;;3.10;;
58896;SDS011;44677;52.378;10.400;2023-05-29T03:01:19;5.10;;;3.20;;
58896;SDS011;44677;52.378;10.400;2023-05-29T03:03:47;5.50;;;3.40;;
58896;SDS011;44677;52.378;10.400;2023-05-29T03:06:12;4.10;;;2.90;;
58896;SDS011;44677;52.378;10.400;2023-05-29T03:08:39;3.90;;;3.10;;
58896;SDS011;44677;52.378;10.400;2023-05-29T03:11:10;4.10;;;3.50;;
58896;SDS011;44677;52.378;10.400;2023-05-29T03:13:36;6.40;;;3.60;;
58896;SDS011;44677;52.378;10.400;2023-05-29T03:16:06;5.70;;;3.50;;
58896;SDS011;44677;52.378;10.400;2023-05-29T03:18:33;4.50;;;3.60;;
58896;SDS011;44677;52.378;10.400;2023-05-29T03:23:26;4.90;;;3.30;;
58896;SDS011;44677;52.378;10.400;2023-05-29T03:25:52;7.50;;;3.30;;
58896;SDS011;44677;52.378;10.400;2023-05-29T03:28:17;4.80;;;3.50;;
58896;SDS011;44677;52.378;10.400;2023-05-29T03:30:43;4.10;;;3.50;;
58896;SDS011;44677;52.378;10.400;2023-05-29T03:33:11;5.50;;;4.60;;
58896;SDS011;44677;52.378;10.400;2023-05-29T03:36:02;6.30;;;3.20;;
58896;SDS011;44677;52.378;10.400;2023-05-29T03:38:27;3.70;;;3.20;;
58896;SDS011;44677;52.378;10.400;2023-05-29T03:40:56;4.00;;;3.40;;
58896;SDS011;44677;52.378;10.400;2023-05-29T03:43:22;3.60;;;3.30;;
58896;SDS011;44677;52.378;10.400;2023-05-29T03:45:47;6.20;;;3.80;;
58896;SDS011;44677;52.378;10.400;2023-05-29T03:48:12;4.80;;;3.50;;
58896;SDS011;44677;52.378;10.400;2023-05-29T03:50:39;4.60;;;3.50;;
58896;SDS011;44677;52.378;10.400;2023-05-29T03:53:05;6.30;;;4.10;;
58896;SDS011;44677;52.378;10.400;2023-05-29T03:55:31;3.70;;;3.20;;
58896;SDS011;44677;52.378;10.400;2023-05-29T03:57:56;4.30;;;3.40;;
58896;SDS011;44677;52.378;10.400;2023-05-29T04:00:22;3.80;;;3.40;;
58896;SDS011;44677;52.378;10.400;2023-05-29T04:02:47;4.10;;;3.70;;
58896;SDS011;44677;52.378;10.400;2023-05-29T04:05:13;4.10;;;3.50;;
58896;SDS011;44677;52.378;10.400;2023-05-29T04:07:38;4.80;;;3.20;;
58896;SDS011;44677;52.378;10.400;2023-05-29T04:10:05;6.60;;;3.90;;
58896;SDS011;44677;52.378;10.400;2023-05-29T04:12:33;5.50;;;3.80;;
58896;SDS011;44677;52.378;10.400;2023-05-29T04:14:58;5.70;;;3.40;;
58896;SDS011;44677;52.378;10.400;2023-05-29T04:17:24;5.50;;;3.40;;
58896;SDS011;44677;52.378;10.400;2023-05-29T04:19:50;6.20;;;3.80;;
58896;SDS011;44677;52.378;10.400;2023-05-29T04:22:15;5.60;;;3.90;;
58896;SDS011;44677;52.378;10.400;2023-05-29T04:24:41;7.10;;;3.80;;
58896;SDS011;44677;52.378;10.400;2023-05-29T04:27:09;4.20;;;3.50;;
58896;SDS011;44677;52.378;10.400;2023-05-29T04:29:41;5.60;;;3.50;;
58896;SDS011;44677;52.378;10.400;2023-05-29T04:32:08;5.10;;;3.20;;
58896;SDS011;44677;52.378;10.400;2023-05-29T04:34:37;5.80;;;3.50;;
58896;SDS011;44677;52.378;10.400;2023-05-29T04:37:09;5.60;;;3.30;;
58896;SDS011;44677;52.378;10.400;2023-05-29T04:39:34;5.30;;;3.20;;
58896;SDS011;44677;52.378;10.400;2023-05-29T04:42:00;5.00;;;3.10;;
58896;SDS011;44677;52.378;10.400;2023-05-29T04:44:26;10.90;;;3.30;;
58896;SDS011;44677;52.378;10.400;2023-05-29T04:46:52;8.80;;;3.00;;
58896;SDS011;44677;52.378;10.400;2023-05-29T04:49:19;4.70;;;3.00;;
58896;SDS011;44677;52.378;10.400;2023-05-29T04:51:45;9.90;;;3.10;;
58896;SDS011;44677;52.378;10.400;2023-05-29T04:54:11;7.40;;;3.20;;
58896;SDS011;44677;52.378;10.400;2023-05-29T04:56:37;7.70;;;3.30;;
58896;SDS011;44677;52.378;10.400;2023-05-29T04:59:06;8.40;;;3.00;;
58896;SDS011;44677;52.378;10.400;2023-05-29T05:01:34;4.10;;;2.90;;
58896;SDS011;44677;52.378;10.400;2023-05-29T05:03:59;11.10;;;3.10;;
58896;SDS011;44677;52.378;10.400;2023-05-29T05:06:25;8.40;;;3.40;;
58896;SDS011;44677;52.378;10.400;2023-05-29T05:08:52;6.30;;;2.80;;
58896;SDS011;44677;52.378;10.400;2023-05-29T05:11:19;7.40;;;3.10;;
58896;SDS011;44677;52.378;10.400;2023-05-29T05:13:46;8.50;;;3.00;;
58896;SDS011;44677;52.378;10.400;2023-05-29T05:16:11;7.20;;;2.80;;
58896;SDS011;44677;52.378;10.400;2023-05-29T05:18:38;8.10;;;2.90;;
58896;SDS011;44677;52.378;10.400;2023-05-29T05:21:05;7.70;;;2.70;;
58896;SDS011;44677;52.378;10.400;2023-05-29T05:23:32;10.20;;;2.90;;
58896;SDS011;44677;52.378;10.400;2023-05-29T05:25:58;3.90;;;2.30;;
58896;SDS011;44677;52.378;10.400;2023-05-29T05:28:23;8.90;;;3.10;;
58896;SDS011;44677;52.378;10.400;2023-05-29T05:30:49;9.10;;;3.20;;
58896;SDS011;44677;52.378;10.400;2023-05-29T05:33:14;6.60;;;2.70;;
58896;SDS011;44677;52.378;10.400;2023-05-29T05:35:40;6.40;;;2.70;;
58896;SDS011;44677;52.378;10.400;2023-05-29T05:38:07;8.60;;;3.40;;
58896;SDS011;44677;52.378;10.400;2023-05-29T05:40:33;10.50;;;2.90;;
58896;SDS011;44677;52.378;10.400;2023-05-29T05:43:03;7.20;;;2.90;;
58896;SDS011;44677;52.378;10.400;2023-05-29T05:46:04;8.80;;;3.10;;
58896;SDS011;44677;52.378;10.400;2023-05-29T05:48:30;6.70;;;2.80;;
58896;SDS011;44677;52.378;10.400;2023-05-29T05:50:56;8.40;;;3.50;;
58896;SDS011;44677;52.378;10.400;2023-05-29T05:53:21;8.20;;;2.80;;
58896;SDS011;44677;52.378;10.400;2023-05-29T05:55:47;11.50;;;3.20;;
58896;SDS011;44677;52.378;10.400;2023-05-29T05:58:12;9.20;;;2.60;;
58896;SDS011;44677;52.378;10.400;2023-05-29T06:00:39;5.10;;;2.50;;
58896;SDS011;44677;52.378;10.400;2023-05-29T06:03:05;12.80;;;3.60;;
58896;SDS011;44677;52.378;10.400;2023-05-29T06:05:45;8.50;;;2.40;;
58896;SDS011;44677;52.378;10.400;2023-05-29T06:08:10;10.10;;;2.90;;
58896;SDS011;44677;52.378;10.400;2023-05-29T06:10:37;7.40;;;2.40;;
58896;SDS011;44677;52.378;10.400;2023-05-29T06:13:02;8.60;;;2.40;;
58896;SDS011;44677;52.378;10.400;2023-05-29T06:15:34;8.60;;;2.70;;
58896;SDS011;44677;52.378;10.400;2023-05-29T06:18:01;8.60;;;2.50;;
58896;SDS011;44677;52.378;10.400;2023-05-29T06:20:27;10.00;;;2.60;;
58896;SDS011;44677;52.378;10.400;2023-05-29T06:22:53;12.60;;;2.90;;
58896;SDS011;44677;52.378;10.400;2023-05-29T06:25:19;7.30;;;2.50;;
58896;SDS011;44677;52.378;10.400;2023-05-29T06:27:45;7.40;;;2.70;;
58896;SDS011;44677;52.378;10.400;2023-05-29T06:30:11;8.20;;;2.70;;
58896;SDS011;44677;52.378;10.400;2023-05-29T06:32:38;6.20;;;2.60;;
58896;SDS011;44677;52.378;10.400;2023-05-29T06:35:05;6.90;;;3.00;;
58896;SDS011;44677;52.378;10.400;2023-05-29T06:37:32;10.70;;;2.70;;
58896;SDS011;44677;52.378;10.400;2023-05-29T06:39:57;7.70;;;2.60;;
58896;SDS011;44677;52.378;10.400;2023-05-29T06:42:23;8.00;;;2.60;;
58896;SDS011;44677;52.378;10.400;2023-05-29T06:44:55;8.70;;;3.10;;
58896;SDS011;44677;52.378;10.400;2023-05-29T06:47:21;10.30;;;2.60;;
58896;SDS011;44677;52.378;10.400;2023-05-29T06:49:46;9.80;;;2.80;;
58896;SDS011;44677;52.378;10.400;2023-05-29T06:52:12;8.50;;;2.60;;
58896;SDS011;44677;52.378;10.400;2023-05-29T06:55:16;8.50;;;2.50;;
58896;SDS011;44677;52.378;10.400;2023-05-29T06:57:41;10.50;;;2.70;;
58896;SDS011;44677;52.378;10.400;2023-05-29T07:00:07;9.30;;;2.60;;
58896;SDS011;44677;52.378;10.400;2023-05-29T07:02:37;8.90;;;2.80;;
58896;SDS011;44677;52.378;10.400;2023-05-29T07:05:02;9.30;;;2.80;;
58896;SDS011;44677;52.378;10.400;2023-05-29T07:07:29;5.80;;;2.40;;
58896;SDS011;44677;52.378;10.400;2023-05-29T07:09:55;7.70;;;2.60;;
58896;SDS011;44677;52.378;10.400;2023-05-29T07:12:23;10.20;;;2.70;;
58896;SDS011;44677;52.378;10.400;2023-05-29T07:14:49;10.30;;;2.60;;
58896;SDS011;44677;52.378;10.400;2023-05-29T07:17:15;7.80;;;3.00;;
58896;SDS011;44677;52.378;10.400;2023-05-29T07:19:41;9.10;;;2.80;;
58896;SDS011;44677;52.378;10.400;2023-05-29T07:22:06;11.70;;;3.10;;
58896;SDS011;44677;52.378;10.400;2023-05-29T07:24:32;9.70;;;2.60;;
58896;SDS011;44677;52.378;10.400;2023-05-29T07:26:59;8.60;;;2.50;;
58896;SDS011;44677;52.378;10.400;2023-05-29T07:29:25;11.40;;;2.70;;
58896;SDS011;44677;52.378;10.400;2023-05-29T07:31:51;9.90;;;2.80;;
58896;SDS011;44677;52.378;10.400;2023-05-29T07:34:18;5.10;;;2.20;;
58896;SDS011;44677;52.378;10.400;2023-05-29T07:39:22;10.70;;;2.70;;
58896;SDS011;44677;52.378;10.400;2023-05-29T07:41:47;10.20;;;2.80;;
58896;SDS011;44677;52.378;10.400;2023-05-29T07:44:13;6.30;;;2.40;;
58896;SDS011;44677;52.378;10.400;2023-05-29T07:46:38;9.00;;;2.80;;
58896;SDS011;44677;52.378;10.400;2023-05-29T07:49:26;10.50;;;3.10;;
58896;SDS011;44677;52.378;10.400;2023-05-29T07:51:52;8.70;;;2.50;;
58896;SDS011;44677;52.378;10.400;2023-05-29T07:54:19;7.20;;;2.90;;
58896;SDS011;44677;52.378;10.400;2023-05-29T07:56:46;7.90;;;2.40;;
58896;SDS011;44677;52.378;10.400;2023-05-29T07:59:12;7.60;;;2.80;;
58896;SDS011;44677;52.378;10.400;2023-05-29T08:01:38;16.00;;;3.40;;
58896;SDS011;44677;52.378;10.400;2023-05-29T08:04:04;9.90;;;2.30;;
58896;SDS011;44677;52.378;10.400;2023-05-29T08:06:31;9.70;;;2.80;;
58896;SDS011;44677;52.378;10.400;2023-05-29T08:09:00;9.70;;;2.50;;
58896;SDS011;44677;52.378;10.400;2023-05-29T08:11:25;7.40;;;2.50;;
58896;SDS011;44677;52.378;10.400;2023-05-29T08:13:51;8.30;;;3.10;;
58896;SDS011;44677;52.378;10.400;2023-05-29T08:16:17;6.00;;;2.40;;
58896;SDS011;44677;52.378;10.400;2023-05-29T08:18:42;9.10;;;2.70;;
58896;SDS011;44677;52.378;10.400;2023-05-29T08:21:08;9.90;;;2.80;;
58896;SDS011;44677;52.378;10.400;2023-05-29T08:23:34;10.70;;;2.90;;
58896;SDS011;44677;52.378;10.400;2023-05-29T08:26:00;12.90;;;2.90;;
58896;SDS011;44677;52.378;10.400;2023-05-29T08:28:27;8.20;;;2.80;;
58896;SDS011;44677;52.378;10.400;2023-05-29T08:30:53;5.50;;;2.40;;
58896;SDS011;44677;52.378;10.400;2023-05-29T08:33:19;11.30;;;2.60;;
58896;SDS011;44677;52.378;10.400;2023-05-29T08:35:44;8.50;;;2.80;;
58896;SDS011;44677;52.378;10.400;2023-05-29T08:38:10;11.10;;;2.60;;
58896;SDS011;44677;52.378;10.400;2023-05-29T08:40:35;10.10;;;3.20;;
58896;SDS011;44677;52.378;10.400;2023-05-29T08:45:52;8.30;;;2.50;;
58896;SDS011;44677;52.378;10.400;2023-05-29T08:48:18;6.20;;;2.40;;
58896;SDS011;44677;52.378;10.400;2023-05-29T08:50:44;5.80;;;2.70;;
58896;SDS011;44677;52.378;10.400;2023-05-29T08:53:14;6.40;;;2.90;;
58896;SDS011;44677;52.378;10.400;2023-05-29T08:55:40;6.40;;;2.50;;
58896;SDS011;44677;52.378;10.400;2023-05-29T08:58:06;5.30;;;2.30;;
58896;SDS011;44677;52.378;10.400;2023-05-29T09:00:32;9.90;;;3.10;;
58896;SDS011;44677;52.378;10.400;2023-05-29T09:02:58;6.90;;;2.50;;
58896;SDS011;44677;52.378;10.400;2023-05-29T09:05:24;8.60;;;2.60;;
58896;SDS011;44677;52.378;10.400;2023-05-29T09:07:54;5.00;;;2.40;;
58896;SDS011;44677;52.378;10.400;2023-05-29T09:10:20;12.00;;;2.30;;
58896;SDS011;44677;52.378;10.400;2023-05-29T09:15:22;5.00;;;2.30;;
58896;SDS011;44677;52.378;10.400;2023-05-29T09:17:51;6.90;;;2.50;;
58896;SDS011;44677;52.378;10.400;2023-05-29T09:20:18;6.60;;;2.30;;
58896;SDS011;44677;52.378;10.400;2023-05-29T09:25:32;6.80;;;2.70;;
58896;SDS011;44677;52.378;10.400;2023-05-29T09:28:00;7.40;;;2.50;;
58896;SDS011;44677;52.378;10.400;2023-05-29T09:33:10;5.70;;;2.30;;
58896;SDS011;44677;52.378;10.400;2023-05-29T09:35:37;6.40;;;2.40;;
58896;SDS011;44677;52.378;10.400;2023-05-29T09:38:04;9.60;;;2.60;;
58896;SDS011;44677;52.378;10.400;2023-05-29T09:43:01;6.80;;;2.40;;
58896;SDS011;44677;52.378;10.400;2023-05-29T09:45:28;9.00;;;2.80;;
58896;SDS011;44677;52.378;10.400;2023-05-29T09:47:53;7.10;;;2.50;;
58896;SDS011;44677;52.378;10.400;2023-05-29T09:50:20;5.00;;;2.20;;
58896;SDS011;44677;52.378;10.400;2023-05-29T09:52:50;8.00;;;2.80;;
58896;SDS011;44677;52.378;10.400;2023-05-29T09:55:18;6.10;;;2.10;;
58896;SDS011;44677;52.378;10.400;2023-05-29T09:57:46;6.00;;;2.60;;
58896;SDS011;44677;52.378;10.400;2023-05-29T10:00:13;4.60;;;2.30;;
58896;SDS011;44677;52.378;10.400;2023-05-29T10:02:41;6.40;;;2.50;;
58896;SDS011;44677;52.378;10.400;2023-05-29T10:05:06;8.80;;;2.70;;
58896;SDS011;44677;52.378;10.400;2023-05-29T10:07:37;7.20;;;2.70;;
58896;SDS011;44677;52.378;10.400;2023-05-29T10:10:03;9.40;;;2.70;;
58896;SDS011;44677;52.378;10.400;2023-05-29T10:12:37;6.90;;;2.50;;
58896;SDS011;44677;52.378;10.400;2023-05-29T10:15:05;9.30;;;2.80;;
58896;SDS011;44677;52.378;10.400;2023-05-29T10:17:33;7.00;;;2.40;;
58896;SDS011;44677;52.378;10.400;2023-05-29T10:20:01;5.80;;;2.30;;
58896;SDS011;44677;52.378;10.400;2023-05-29T10:22:27;6.10;;;2.40;;
58896;SDS011;44677;52.378;10.400;2023-05-29T10:24:54;4.40;;;2.40;;
58896;SDS011;44677;52.378;10.400;2023-05-29T10:27:21;6.20;;;2.40;;
58896;SDS011;44677;52.378;10.400;2023-05-29T10:29:52;7.00;;;2.60;;
58896;SDS011;44677;52.378;10.400;2023-05-29T10:32:27;4.80;;;2.20;;
58896;SDS011;44677;52.378;10.400;2023-05-29T10:37:31;7.40;;;2.80;;
58896;SDS011;44677;52.378;10.400;2023-05-29T10:40:15;5.00;;;2.50;;
58896;SDS011;44677;52.378;10.400;2023-05-29T10:42:48;5.30;;;2.40;;
58896;SDS011;44677;52.378;10.400;2023-05-29T10:47:54;7.40;;;2.40;;
58896;SDS011;44677;52.378;10.400;2023-05-29T10:53:07;6.50;;;2.20;;
58896;SDS011;44677;52.378;10.400;2023-05-29T10:55:39;4.70;;;2.40;;
58896;SDS011;44677;52.378;10.400;2023-05-29T10:58:05;7.50;;;2.50;;
58896;SDS011;44677;52.378;10.400;2023-05-29T11:00:32;9.00;;;2.80;;
58896;SDS011;44677;52.378;10.400;2023-05-29T11:03:01;7.70;;;2.60;;
58896;SDS011;44677;52.378;10.400;2023-05-29T11:05:29;7.50;;;2.90;;
58896;SDS011;44677;52.378;10.400;2023-05-29T11:07:56;7.70;;;2.60;;
58896;SDS011;44677;52.378;10.400;2023-05-29T11:10:41;5.00;;;2.40;;
58896;SDS011;44677;52.378;10.400;2023-05-29T11:13:36;7.90;;;2.60;;
58896;SDS011;44677;52.378;10.400;2023-05-29T11:18:58;6.40;;;2.60;;
58896;SDS011;44677;52.378;10.400;2023-05-29T11:21:29;7.50;;;2.50;;
58896;SDS011;44677;52.378;10.400;2023-05-29T11:24:24;11.10;;;3.00;;
58896;SDS011;44677;52.378;10.400;2023-05-29T11:26:51;5.10;;;2.30;;
58896;SDS011;44677;52.378;10.400;2023-05-29T11:29:28;5.60;;;2.30;;
58896;SDS011;44677;52.378;10.400;2023-05-29T11:32:06;6.80;;;2.70;;
58896;SDS011;44677;52.378;10.400;2023-05-29T11:34:39;4.70;;;2.30;;
58896;SDS011;44677;52.378;10.400;2023-05-29T11:37:05;5.30;;;2.10;;
58896;SDS011;44677;52.378;10.400;2023-05-29T11:39:31;6.00;;;2.50;;
58896;SDS011;44677;52.378;10.400;2023-05-29T11:42:00;4.40;;;2.30;;
58896;SDS011;44677;52.378;10.400;2023-05-29T11:44:27;5.60;;;2.60;;
58896;SDS011;44677;52.378;10.400;2023-05-29T11:47:02;5.30;;;2.20;;
58896;SDS011;44677;52.378;10.400;2023-05-29T11:49:32;7.90;;;2.50;;
58896;SDS011;44677;52.378;10.400;2023-05-29T11:52:05;4.70;;;2.20;;
58896;SDS011;44677;52.378;10.400;2023-05-29T11:54:32;4.30;;;2.50;;
58896;SDS011;44677;52.378;10.400;2023-05-29T11:56:58;4.40;;;2.40;;
58896;SDS011;44677;52.378;10.400;2023-05-29T11:59:28;4.40;;;2.40;;
58896;SDS011;44677;52.378;10.400;2023-05-29T12:01:54;6.20;;;2.60;;
58896;SDS011;44677;52.378;10.400;2023-05-29T12:04:19;4.20;;;2.60;;
58896;SDS011;44677;52.378;10.400;2023-05-29T12:06:45;6.10;;;2.40;;
58896;SDS011;44677;52.378;10.400;2023-05-29T12:09:22;5.30;;;2.40;;
58896;SDS011;44677;52.378;10.400;2023-05-29T12:11:50;5.60;;;2.60;;
58896;SDS011;44677;52.378;10.400;2023-05-29T12:14:15;8.00;;;2.40;;
58896;SDS011;44677;52.378;10.400;2023-05-29T12:16:41;3.30;;;2.00;;
58896;SDS011;44677;52.378;10.400;2023-05-29T12:19:06;4.50;;;2.80;;
58896;SDS011;44677;52.378;10.400;2023-05-29T12:21:32;5.80;;;2.30;;
58896;SDS011;44677;52.378;10.400;2023-05-29T12:23:57;6.70;;;2.40;;
58896;SDS011;44677;52.378;10.400;2023-05-29T12:26:23;5.00;;;2.30;;
58896;SDS011;44677;52.378;10.400;2023-05-29T12:31:25;7.50;;;2.60;;
58896;SDS011;44677;52.378;10.400;2023-05-29T12:33:57;6.60;;;2.50;;
58896;SDS011;44677;52.378;10.400;2023-05-29T12:36:25;3.80;;;2.30;;
58896;SDS011;44677;52.378;10.400;2023-05-29T12:38:51;6.00;;;2.30;;
58896;SDS011;44677;52.378;10.400;2023-05-29T12:41:27;6.40;;;2.60;;
58896;SDS011;44677;52.378;10.400;2023-05-29T12:43:54;5.40;;;2.50;;
58896;SDS011;44677;52.378;10.400;2023-05-29T12:46:23;4.60;;;2.30;;
58896;SDS011;44677;52.378;10.400;2023-05-29T12:48:55;5.50;;;2.40;;
58896;SDS011;44677;52.378;10.400;2023-05-29T12:51:24;5.40;;;2.70;;
58896;SDS011;44677;52.378;10.400;2023-05-29T12:53:51;7.10;;;2.50;;
58896;SDS011;44677;52.378;10.400;2023-05-29T12:56:20;5.80;;;2.80;;
58896;SDS011;44677;52.378;10.400;2023-05-29T12:58:48;5.60;;;2.60;;
58896;SDS011;44677;52.378;10.400;2023-05-29T13:01:14;10.90;;;2.70;;
58896;SDS011;44677;52.378;10.400;2023-05-29T13:03:40;8.00;;;2.30;;
58896;SDS011;44677;52.378;10.400;2023-05-29T13:06:06;4.30;;;2.90;;
58896;SDS011;44677;52.378;10.400;2023-05-29T13:08:32;7.20;;;3.00;;
58896;SDS011;44677;52.378;10.400;2023-05-29T13:10:57;7.80;;;3.20;;
58896;SDS011;44677;52.378;10.400;2023-05-29T13:13:23;5.40;;;2.70;;
58896;SDS011;44677;52.378;10.400;2023-05-29T13:15:48;5.60;;;2.40;;
58896;SDS011;44677;52.378;10.400;2023-05-29T13:18:13;4.60;;;2.30;;
58896;SDS011;44677;52.378;10.400;2023-05-29T13:20:39;6.10;;;2.80;;
58896;SDS011;44677;52.378;10.400;2023-05-29T13:23:05;5.60;;;2.50;;
58896;SDS011;44677;52.378;10.400;2023-05-29T13:25:30;5.60;;;2.50;;
58896;SDS011;44677;52.378;10.400;2023-05-29T13:27:56;7.40;;;2.70;;
58896;SDS011;44677;52.378;10.400;2023-05-29T13:30:21;7.00;;;2.50;;
58896;SDS011;44677;52.378;10.400;2023-05-29T13:32:47;5.90;;;2.70;;
58896;SDS011;44677;52.378;10.400;2023-05-29T13:35:13;5.50;;;2.60;;
58896;SDS011;44677;52.378;10.400;2023-05-29T13:37:38;6.20;;;2.70;;
58896;SDS011;44677;52.378;10.400;2023-05-29T13:40:05;8.70;;;2.60;;
58896;SDS011;44677;52.378;10.400;2023-05-29T13:42:31;6.00;;;2.90;;
58896;SDS011;44677;52.378;10.400;2023-05-29T13:44:57;3.90;;;2.10;;
58896;SDS011;44677;52.378;10.400;2023-05-29T13:47:22;5.10;;;2.40;;
58896;SDS011;44677;52.378;10.400;2023-05-29T13:49:48;6.00;;;2.30;;
58896;SDS011;44677;52.378;10.400;2023-05-29T13:52:13;5.10;;;2.30;;
58896;SDS011;44677;52.378;10.400;2023-05-29T13:54:39;6.40;;;2.40;;
58896;SDS011;44677;52.378;10.400;2023-05-29T13:57:05;7.00;;;2.40;;
58896;SDS011;44677;52.378;10.400;2023-05-29T13:59:34;5.30;;;2.20;;
58896;SDS011;44677;52.378;10.400;2023-05-29T14:02:00;5.80;;;2.30;;
58896;SDS011;44677;52.378;10.400;2023-05-29T14:04:28;3.80;;;2.20;;
58896;SDS011;44677;52.378;10.400;2023-05-29T14:06:54;5.80;;;2.40;;
58896;SDS011;44677;52.378;10.400;2023-05-29T14:09:21;5.30;;;2.30;;
58896;SDS011;44677;52.378;10.400;2023-05-29T14:11:59;6.40;;;3.10;;
58896;SDS011;44677;52.378;10.400;2023-05-29T14:14:25;5.40;;;2.10;;
58896;SDS011;44677;52.378;10.400;2023-05-29T14:16:51;5.20;;;2.50;;
58896;SDS011;44677;52.378;10.400;2023-05-29T14:19:17;4.50;;;2.20;;
58896;SDS011;44677;52.378;10.400;2023-05-29T14:21:43;4.20;;;2.20;;
58896;SDS011;44677;52.378;10.400;2023-05-29T14:24:09;3.90;;;2.50;;
58896;SDS011;44677;52.378;10.400;2023-05-29T14:26:35;4.30;;;2.20;;
58896;SDS011;44677;52.378;10.400;2023-05-29T14:29:01;4.60;;;1.90;;
58896;SDS011;44677;52.378;10.400;2023-05-29T14:33:52;6.30;;;2.40;;
58896;SDS011;44677;52.378;10.400;2023-05-29T14:36:17;3.50;;;2.50;;
58896;SDS011;44677;52.378;10.400;2023-05-29T14:38:43;6.40;;;2.30;;
58896;SDS011;44677;52.378;10.400;2023-05-29T14:41:09;4.20;;;2.20;;
58896;SDS011;44677;52.378;10.400;2023-05-29T14:43:37;3.70;;;2.30;;
58896;SDS011;44677;52.378;10.400;2023-05-29T14:46:03;4.50;;;2.20;;
58896;SDS011;44677;52.378;10.400;2023-05-29T14:48:28;5.50;;;2.40;;
58896;SDS011;44677;52.378;10.400;2023-05-29T14:50:54;5.30;;;2.20;;
58896;SDS011;44677;52.378;10.400;2023-05-29T14:53:19;5.20;;;2.60;;
58896;SDS011;44677;52.378;10.400;2023-05-29T14:58:11;4.70;;;2.20;;
58896;SDS011;44677;52.378;10.400;2023-05-29T15:00:39;3.60;;;2.10;;
58896;SDS011;44677;52.378;10.400;2023-05-29T15:03:04;3.40;;;2.10;;
58896;SDS011;44677;52.378;10.400;2023-05-29T15:05:30;3.60;;;2.20;;
58896;SDS011;44677;52.378;10.400;2023-05-29T15:07:56;6.60;;;2.10;;
58896;SDS011;44677;52.378;10.400;2023-05-29T15:10:24;5.20;;;2.20;;
58896;SDS011;44677;52.378;10.400;2023-05-29T15:12:51;4.80;;;2.20;;
58896;SDS011;44677;52.378;10.400;2023-05-29T15:15:28;6.00;;;2.40;;
58896;SDS011;44677;52.378;10.400;2023-05-29T15:17:54;4.00;;;2.30;;
58896;SDS011;44677;52.378;10.400;2023-05-29T15:20:23;7.00;;;2.00;;
58896;SDS011;44677;52.378;10.400;2023-05-29T15:22:50;3.80;;;1.90;;
58896;SDS011;44677;52.378;10.400;2023-05-29T15:27:42;5.90;;;2.20;;